Warren, ID (83671)

9:52 AM PDT on June 02, 2015 (GMT -0700)
MesoWest | | Change Station
CLOSE
Current Station
Personal Weather Station
Location: Warren, ID
Elevation: 6520 ft
Nearby Weather Stations

Elev 6520 ft 45.19 °N, 115.97 °W | Updated 8 hours ago

Overcast
Overcast
50 °F
Feels Like 50 °F
N
6
Wind Variable Wind from WSW
Gusts mph

Today
High -- | Low -- °F
--% Chance of Precip.
Yesterday
High -- | Low -- °F
Precip. -- in
4:57 AM 8:24 PM
Full, 100% visible
Pressure 30.03 in
Visibility 10.0 miles
Clouds Scattered Clouds 1900 ft
Mostly Cloudy 2700 ft
Overcast 3400 ft
Dew Point 44 °F
Humidity 78%
Rainfall in
Snow Depth Not available.
UV 2 out of 12
Pollen 5.30 out of 12
Air Quality Not available.
Flu Activity No Activity
SPECI KMYL 021636Z AUTO 27008KT 10SM -RA SCT019 BKN027 OVC034 09/07 A3003 RMK AO2 RAB20 P0000 T00940072

More Conditions Fewer Conditions

Pressure 30.03 in
Visibility 10.0 miles
Clouds Scattered Clouds 1900 ft
Mostly Cloudy 2700 ft
Overcast 3400 ft
Dew Point 44 °F
Humidity 78%
Rainfall in
Snow Depth Not available.
UV 2 out of 12
Pollen 5.30 out of 12
Air Quality Not available.
Flu Activity No Activity
SPECI KMYL 021636Z AUTO 27008KT 10SM -RA SCT019 BKN027 OVC034 09/07 A3003 RMK AO2 RAB20 P0000 T00940072

More Conditions Fewer Conditions

10-Day Weather Forecast

Almanac

Astronomy

Jun. 02, 2015 Rise Set
Actual Time
Civil Twilight
Nautical Twilight
Astronomical Twilight
Moon
Length of Visible Light
Length of Day
Tomorrow will be .
, % of the Moon is Illuminated

Today's Extremes

State Highs State Lows

Community

WunderPhotos

Upload Photos

1,825,980 photos uploaded!

WunderBlogs® & News

Nearby

Air Quality

  Air Quality AQ Index Pollutant
Not available.

Snow Depth

Station Depth Elevation

Earthquake Activity

City Distance Mag. Time & Date
Minimum magnitude displayed is 2.5.

Coastal Water Temperatures

Place Temperature

Stations

Nearby Weather Stations

Station Location Temp. Windchill Dew Point Humidity Wind Precip. Elev Updated Type